Urb Mallorca, Puerto Rico
Current Conditions -  °F | °C
As of 4:56 AM on Wednesday 28 Jan 2015 (Local Time) from TJSJ Reporting Station
Clear Clear  
Wind Chill: 74°   Ceiling: Unl
Heat Index: 74°   Visibility: 10mi
Dew Point: 72°   Wind: 0mph
Humidity: 93%   Direction: NA
Pressure: 29.98"   Gusts: NA
Location:  18.3866°N, 66.1135°W
Report Text: TJSJ 280856Z 00000KT 10SM CLR 23/22 A2998 RMK AO2 SLP150 T02330222 55003
Loading
Personal Weather Stations






























Interactive Weather Map New forecast layout! Learn more

10-Day Weather Forecast

Advertisements
Track Severe Weather on mobile